Radar AviationWeather DUATS TFRs Wunderground Accuweather Weather.com

Radar

TAFs

KCLE 050532Z 0506/0612 VRB03KT P6SM VCSH SCT020 BKN050
   FM050900 VRB03KT P6SM FEW008 BKN025
   FM051300 VRB03KT P6SM VCSH SCT025 BKN035
     TEMPO 0513/0515 SCT015 BKN025
   FM051500 31005KT P6SM FEW035 SCT050
   FM060600 16004KT P6SM FEW035
KTOL 050532Z 0506/0606 VRB03KT P6SM SKC
   FM051500 32004KT P6SM FEW040
   FM052200 VRB03KT P6SM FEW050 SCT250
KFDY 050532Z 0506/0606 VRB03KT P6SM SKC
   FM051400 VRB03KT P6SM FEW040
KJXN 050530Z 0506/0606 28003KT P6SM SKC
   FM051600 27008KT P6SM BKN050
   FM052300 27007KT P6SM FEW060
   FM060100 25004KT P6SM SKC
KDTW 050520Z 0506/0612 33004KT P6SM FEW080
   FM051500 27005KT P6SM SCT050
     TEMPO 0516/0520 BKN050
   FM060200 VRB03KT P6SM SCT250
KFWA 050520Z 0506/0606 29005KT P6SM SKC
   FM051500 32005KT P6SM FEW050

METARs

KDUH 050535Z AUTO 00000KT 10SM CLR 14/12 A3003 RMK AO2 T01410122
KJXN 050456Z AUTO 23004KT 10SM CLR 12/10 A3005 RMK AO2 SLP174 T01220100 402110122
KFWA 050454Z 27005KT 10SM CLR 12/09 A3008 RMK AO2 SLP185 T01170094 402330117 $
KDTW 050453Z 29005KT 10SM SCT090 BKN200 17/14 A3003 RMK AO2 SLP167 T01670139 402440167 $
KFDY 050453Z AUTO 28004KT 10SM CLR 15/11 A3005 RMK AO2 SLP168 T01500106 402560144
KTDZ 050453Z AUTO 29005KT 10SM CLR 16/13 A3004 RMK AO2 SLP171 T01560128 402440156
KTOL 050452Z 28004KT 10SM CLR 16/11 A3004 RMK AO2 SLP171 T01610106 402390161
KCLE 050451Z 24006KT 10SM -RA SCT065 OVC080 18/17 A3004 RMK AO2 RAB25 SLP168 P0000 T01780167 402390178

Satellite

TFRs